createdAt,value
2022-10-10T00:00:26.297Z,66.15
2022-10-10T00:01:30.947Z,66.03
2022-10-10T00:02:33.533Z,66.21
2022-10-10T00:03:35.043Z,66.43
2022-10-10T00:04:37.756Z,66.38
2022-10-10T00:05:40.159Z,66.25
2022-10-10T00:06:43.997Z,66.40
2022-10-10T00:07:45.544Z,66.33
2022-10-10T00:08:48.580Z,66.37
2022-10-10T00:09:50.088Z,66.26
2022-10-10T00:10:52.560Z,66.45
2022-10-10T00:11:54.123Z,66.61
2022-10-10T00:12:56.633Z,66.54
2022-10-10T00:13:58.966Z,66.46
2022-10-10T00:15:01.618Z,66.63
2022-10-10T00:16:04.308Z,66.47
2022-10-10T00:17:06.842Z,66.61
2022-10-10T00:18:08.899Z,66.61
2022-10-10T00:19:11.415Z,66.97
2022-10-10T00:20:15.410Z,66.66
2022-10-10T00:21:18.059Z,66.68
2022-10-10T00:22:20.907Z,66.58
2022-10-10T00:23:23.483Z,66.72
2022-10-10T00:24:24.990Z,66.90
2022-10-10T00:25:27.737Z,66.87
2022-10-10T00:26:29.659Z,66.84
2022-10-10T00:27:32.197Z,66.88
2022-10-10T00:28:33.837Z,66.80
2022-10-10T00:29:36.363Z,66.94
2022-10-10T00:30:38.372Z,66.83
2022-10-10T00:31:40.855Z,66.68
2022-10-10T00:32:42.365Z,66.90
2022-10-10T00:33:45.445Z,66.86
2022-10-10T00:34:46.961Z,66.96
2022-10-10T00:35:50.176Z,66.82
2022-10-10T00:36:51.699Z,66.95
2022-10-10T00:37:55.740Z,67.03
2022-10-10T00:38:57.371Z,66.87
2022-10-10T00:39:59.887Z,67.22
2022-10-10T00:41:02.093Z,67.10
2022-10-10T00:42:04.876Z,66.99
2022-10-10T00:43:06.410Z,67.32
2022-10-10T00:44:11.035Z,67.33
2022-10-10T00:45:33.127Z,67.09
2022-10-10T00:46:35.976Z,67.16
2022-10-10T00:47:37.531Z,67.25
2022-10-10T00:48:43.215Z,67.09
2022-10-10T00:49:44.741Z,67.33
2022-10-10T00:50:51.573Z,67.20
2022-10-10T00:51:58.484Z,67.39
2022-10-10T00:53:03.709Z,67.38
2022-10-10T00:54:09.665Z,67.51
2022-10-10T00:55:12.590Z,67.59
2022-10-10T00:56:17.571Z,67.54
2022-10-10T00:57:19.118Z,67.76
2022-10-10T00:58:22.716Z,67.75
2022-10-10T00:59:25.668Z,67.76
2022-10-10T01:00:29.844Z,67.78
2022-10-10T01:01:31.532Z,67.61
2022-10-10T01:02:34.101Z,67.77
2022-10-10T01:03:35.788Z,67.83
2022-10-10T01:04:45.272Z,67.89
2022-10-10T01:05:48.255Z,67.97
2022-10-10T01:06:50.744Z,67.83
2022-10-10T01:07:52.628Z,68.07
2022-10-10T01:08:58.004Z,67.88
2022-10-10T01:10:04.128Z,67.99
2022-10-10T01:11:28.673Z,68.23
2022-10-10T01:12:40.674Z,68.12
2022-10-10T01:13:52.883Z,68.19
2022-10-10T01:15:00.030Z,68.17
2022-10-10T01:16:08.272Z,68.10
2022-10-10T01:17:14.689Z,68.23
2022-10-10T01:18:26.081Z,68.33
2022-10-10T01:19:55.388Z,68.30
2022-10-10T01:21:06.456Z,68.25
2022-10-10T01:22:21.350Z,68.30
2022-10-10T01:23:54.496Z,68.37
2022-10-10T01:25:02.445Z,68.30
2022-10-10T01:26:22.643Z,68.46
2022-10-10T01:27:33.128Z,68.51
2022-10-10T01:28:44.211Z,68.44
2022-10-10T01:29:52.064Z,68.51
2022-10-10T01:30:58.114Z,68.38
2022-10-10T01:32:05.345Z,68.44
2022-10-10T01:33:13.940Z,68.61
2022-10-10T01:34:23.726Z,68.44
2022-10-10T01:45:46.770Z,68.77
2022-10-10T01:46:48.472Z,68.79
2022-10-10T01:47:53.513Z,68.86
2022-10-10T01:48:58.150Z,68.92
2022-10-10T01:50:04.416Z,68.88
2022-10-10T01:51:21.330Z,68.84
2022-10-10T01:52:36.874Z,69.15
2022-10-10T01:53:43.752Z,68.75
2022-10-10T01:54:55.867Z,69.10
2022-10-10T01:56:08.218Z,69.41
2022-10-10T01:57:22.884Z,69.05
2022-10-10T01:58:47.816Z,69.12
2022-10-10T02:00:01.950Z,69.10
2022-10-10T02:01:16.474Z,69.21
2022-10-10T02:02:28.375Z,69.29
2022-10-10T02:03:36.076Z,69.17
2022-10-10T02:04:43.072Z,69.35
2022-10-10T02:05:49.239Z,69.09
2022-10-10T02:06:56.248Z,69.28
2022-10-10T02:08:03.255Z,69.37
2022-10-10T02:09:09.671Z,69.49
2022-10-10T02:10:14.458Z,69.52
2022-10-10T02:11:17.007Z,69.48
2022-10-10T02:12:20.362Z,69.45
2022-10-10T02:13:26.611Z,69.46
2022-10-10T02:14:33.095Z,69.53
2022-10-10T02:25:48.410Z,69.38
2022-10-10T02:26:55.394Z,69.56
2022-10-10T02:28:07.687Z,69.79
2022-10-10T02:29:11.637Z,69.67
2022-10-10T02:30:15.311Z,69.63
2022-10-10T02:31:24.748Z,69.94
2022-10-10T02:32:33.013Z,69.73
2022-10-10T02:33:41.646Z,69.82
2022-10-10T02:34:48.937Z,69.79
2022-10-10T02:35:53.057Z,69.84
2022-10-10T02:36:58.710Z,69.80
2022-10-10T02:38:04.053Z,69.93
2022-10-10T02:39:08.312Z,69.88
2022-10-10T02:40:12.710Z,69.99
2022-10-10T02:41:19.369Z,70.09
2022-10-10T02:42:24.184Z,69.86
2022-10-10T02:43:26.901Z,69.89
2022-10-10T02:44:28.548Z,70.01
2022-10-10T02:45:33.064Z,70.08
2022-10-10T02:46:34.639Z,69.99
2022-10-10T02:47:37.204Z,69.96
2022-10-10T02:48:38.863Z,69.83
2022-10-10T02:49:42.176Z,69.90
2022-10-10T02:50:44.170Z,70.12
2022-10-10T02:51:46.654Z,70.11
2022-10-10T02:52:48.580Z,70.02
2022-10-10T02:53:51.320Z,70.08
2022-10-10T02:54:52.856Z,70.19
2022-10-10T02:55:55.474Z,70.16
2022-10-10T02:56:58.478Z,70.04
2022-10-10T02:58:01.030Z,70.08
2022-10-10T02:59:02.591Z,70.26
2022-10-10T03:00:05.796Z,70.31
2022-10-10T03:01:07.692Z,70.34
2022-10-10T03:02:10.210Z,70.09
2022-10-10T03:03:11.714Z,70.25
2022-10-10T03:04:14.521Z,70.25
2022-10-10T03:05:16.207Z,70.31
2022-10-10T03:06:18.714Z,70.30
2022-10-10T03:07:20.271Z,70.18
2022-10-10T03:08:22.781Z,70.33
2022-10-10T03:09:24.327Z,70.41
2022-10-10T03:10:26.836Z,70.34
2022-10-10T03:11:28.408Z,70.21
2022-10-10T03:12:32.453Z,70.17
2022-10-10T03:13:34.093Z,70.19
2022-10-10T03:14:36.802Z,70.37
2022-10-10T03:26:24.609Z,70.47
2022-10-10T03:27:26.149Z,70.45
2022-10-10T03:28:29.022Z,70.53
2022-10-10T03:29:30.687Z,70.49
2022-10-10T03:30:33.164Z,70.68
2022-10-10T03:31:34.667Z,70.65
2022-10-10T03:32:37.163Z,70.49
2022-10-10T03:33:38.896Z,70.40
2022-10-10T03:34:41.500Z,70.65
2022-10-10T03:35:43.072Z,70.59
2022-10-10T03:36:45.638Z,70.58
2022-10-10T03:37:47.141Z,70.72
2022-10-10T03:38:49.611Z,70.75
2022-10-10T03:39:51.270Z,70.73
2022-10-10T03:40:53.859Z,70.67
2022-10-10T03:41:56.720Z,70.79
2022-10-10T03:42:59.660Z,70.77
2022-10-10T03:44:02.124Z,70.81
2022-10-10T03:45:04.397Z,70.93
2022-10-10T03:46:07.072Z,70.84
2022-10-10T03:47:08.648Z,71.00
2022-10-10T03:48:11.435Z,71.01
2022-10-10T03:49:12.979Z,70.82
2022-10-10T03:50:15.439Z,70.92
2022-10-10T03:51:17.008Z,71.01
2022-10-10T03:52:19.569Z,71.01
2022-10-10T03:53:21.102Z,71.12
2022-10-10T03:54:23.592Z,71.09
2022-10-10T03:55:25.127Z,71.18
2022-10-10T03:56:27.715Z,71.13
2022-10-10T03:57:30.659Z,71.18
2022-10-10T03:58:33.257Z,71.27
2022-10-10T03:59:34.768Z,71.15
2022-10-10T04:00:37.423Z,71.08
2022-10-10T04:01:39.025Z,71.40
2022-10-10T04:02:41.801Z,71.38
2022-10-10T04:03:43.387Z,71.49
2022-10-10T04:04:45.856Z,71.40
2022-10-10T04:05:47.364Z,71.57
2022-10-10T04:06:49.890Z,71.57
2022-10-10T04:07:51.455Z,71.54
2022-10-10T04:08:54.282Z,71.71
2022-10-10T04:09:55.814Z,71.63
2022-10-10T04:10:58.408Z,71.58
2022-10-10T04:12:01.609Z,71.79
2022-10-10T04:13:04.493Z,71.71
2022-10-10T04:14:06.983Z,71.74
2022-10-10T04:15:09.406Z,71.75
2022-10-10T04:31:23.851Z,72.34
2022-10-10T04:32:25.485Z,72.16
2022-10-10T04:33:27.963Z,72.41
2022-10-10T04:34:29.911Z,72.58
2022-10-10T04:35:32.495Z,72.57
2022-10-10T04:36:34.185Z,72.51
2022-10-10T04:37:37.062Z,72.58
2022-10-10T04:38:38.672Z,72.72
2022-10-10T04:39:41.147Z,72.60
2022-10-10T04:55:55.140Z,73.18
2022-10-10T04:56:56.717Z,73.09
2022-10-10T04:57:59.263Z,73.12
2022-10-10T04:59:00.863Z,73.38
2022-10-10T05:00:04.545Z,73.31
2022-10-10T05:01:17.302Z,73.25
2022-10-10T05:02:19.763Z,73.42
2022-10-10T05:03:22.381Z,73.50
2022-10-10T05:04:24.878Z,73.57
2022-10-10T05:05:26.551Z,73.51
2022-10-10T05:06:29.134Z,73.46
2022-10-10T05:07:30.652Z,73.53
2022-10-10T05:08:33.115Z,73.74
2022-10-10T05:09:35.683Z,73.62
2022-10-10T05:10:39.456Z,73.83
2022-10-10T05:11:42.295Z,73.60
2022-10-10T05:12:44.764Z,73.57
2022-10-10T05:13:46.335Z,73.74
2022-10-10T05:14:48.810Z,73.68
2022-10-10T05:15:51.840Z,73.82
2022-10-10T05:16:54.367Z,74.01
2022-10-10T05:17:55.899Z,73.88
2022-10-10T05:18:58.454Z,73.91
2022-10-10T05:19:59.994Z,73.79
2022-10-10T05:21:03.800Z,73.96
2022-10-10T05:22:05.905Z,73.94
2022-10-10T05:23:08.394Z,73.90
2022-10-10T05:24:10.056Z,73.84
2022-10-10T05:25:13.148Z,73.91
2022-10-10T05:26:14.676Z,73.86
2022-10-10T05:27:18.535Z,74.15
2022-10-10T05:28:20.158Z,74.10
2022-10-10T05:29:22.945Z,74.06
2022-10-10T05:30:24.480Z,74.19
2022-10-10T05:31:27.071Z,74.14
2022-10-10T05:32:28.585Z,74.44
2022-10-10T05:33:31.676Z,74.19
2022-10-10T05:34:33.230Z,74.32
2022-10-10T05:35:35.885Z,74.43
2022-10-10T05:36:37.428Z,74.25
2022-10-10T05:37:39.920Z,74.42
2022-10-10T05:38:42.065Z,74.37
2022-10-10T05:39:44.603Z,74.31
2022-10-10T05:40:46.131Z,74.40
2022-10-10T05:41:48.659Z,74.39
2022-10-10T05:42:51.959Z,74.37
2022-10-10T05:43:54.733Z,74.50
2022-10-10T05:44:56.274Z,74.68
2022-10-10T05:45:59.082Z,74.55
2022-10-10T05:47:01.664Z,74.49
2022-10-10T05:48:03.243Z,74.67
2022-10-10T05:49:05.746Z,74.68
2022-10-10T05:50:12.675Z,74.64
2022-10-10T05:51:15.175Z,74.63
2022-10-10T05:52:16.785Z,74.82
2022-10-10T05:53:19.491Z,74.57
2022-10-10T05:54:22.289Z,74.81
2022-10-10T05:55:25.859Z,74.82
2022-10-10T05:56:28.591Z,74.88
2022-10-10T05:57:30.138Z,74.93
2022-10-10T05:58:34.388Z,74.94
2022-10-10T05:59:35.880Z,75.05
2022-10-10T06:00:38.436Z,74.79
2022-10-10T06:01:40.095Z,75.10
2022-10-10T06:02:42.637Z,74.94
2022-10-10T06:03:52.486Z,75.11
2022-10-10T06:04:55.122Z,75.00
2022-10-10T06:05:56.771Z,75.06
2022-10-10T06:06:59.336Z,75.14
2022-10-10T06:08:09.327Z,75.04
2022-10-10T06:09:14.507Z,75.08
2022-10-10T06:10:16.181Z,75.28
2022-10-10T06:11:20.416Z,75.12
2022-10-10T06:12:21.933Z,75.29
2022-10-10T06:13:24.669Z,75.21
2022-10-10T06:14:29.832Z,75.09
2022-10-10T06:15:31.410Z,75.21
2022-10-10T06:40:44.626Z,75.24
2022-10-10T06:41:48.163Z,75.48
2022-10-10T06:42:50.973Z,75.42
2022-10-10T06:43:52.705Z,75.38
2022-10-10T06:44:55.338Z,75.34
2022-10-10T06:45:56.982Z,75.50
2022-10-10T06:47:46.315Z,75.39
2022-10-10T06:48:49.082Z,75.25
2022-10-10T06:49:50.615Z,75.33
2022-10-10T06:50:57.775Z,75.12
2022-10-10T06:52:00.573Z,75.49
2022-10-10T06:53:02.334Z,75.12
2022-10-10T06:54:05.191Z,74.72
2022-10-10T06:55:07.434Z,75.42
2022-10-10T06:56:26.294Z,75.31
2022-10-10T06:57:30.228Z,75.23
2022-10-10T06:58:32.815Z,75.22
2022-10-10T06:59:36.368Z,75.16
2022-10-10T07:00:38.396Z,75.09
2022-10-10T07:01:43.088Z,74.95
2022-10-10T07:02:46.049Z,75.11
2022-10-10T07:03:49.389Z,75.02
2022-10-10T07:04:52.503Z,75.10
2022-10-10T07:06:05.108Z,74.86
2022-10-10T07:07:16.423Z,74.90
2022-10-10T07:08:19.023Z,74.80
2022-10-10T07:09:26.688Z,74.71
2022-10-10T07:10:28.627Z,74.57
2022-10-10T07:11:39.460Z,74.66
2022-10-10T07:12:45.056Z,74.65
2022-10-10T07:13:59.236Z,74.75
2022-10-10T07:15:01.024Z,74.68
2022-10-10T07:16:08.849Z,74.72
2022-10-10T07:17:10.870Z,74.67
2022-10-10T07:18:14.948Z,74.59
2022-10-10T07:19:18.965Z,74.56
2022-10-10T07:20:20.638Z,74.56
2022-10-10T07:21:23.204Z,74.61
2022-10-10T07:22:24.937Z,74.55
2022-10-10T07:23:28.423Z,74.59
2022-10-10T07:24:30.043Z,74.70
2022-10-10T07:25:33.039Z,74.37
2022-10-10T07:26:38.086Z,74.39
2022-10-10T07:27:42.109Z,74.52
2022-10-10T07:28:46.727Z,74.45
2022-10-10T07:29:49.227Z,74.38
2022-10-10T07:30:59.155Z,74.61
2022-10-10T07:32:01.849Z,74.40
2022-10-10T07:33:06.093Z,74.50
2022-10-10T07:34:08.573Z,74.56
2022-10-10T07:35:13.996Z,74.41
2022-10-10T07:36:16.675Z,74.48
2022-10-10T07:37:18.210Z,74.24
2022-10-10T07:38:20.847Z,74.54
2022-10-10T07:39:24.801Z,74.24
2022-10-10T07:40:27.338Z,74.13
2022-10-10T07:41:29.128Z,74.31
2022-10-10T07:42:31.789Z,74.36
2022-10-10T07:43:34.905Z,74.38
2022-10-10T07:44:37.456Z,74.38
2022-10-10T07:45:39.649Z,74.11
2022-10-10T07:46:42.615Z,74.40
2022-10-10T07:47:44.176Z,74.34
2022-10-10T07:48:46.930Z,74.43
2022-10-10T07:49:49.408Z,74.40
2022-10-10T07:55:46.013Z,74.43
2022-10-10T07:56:47.609Z,74.56
2022-10-10T07:57:53.426Z,74.52
2022-10-10T07:58:57.799Z,74.36
2022-10-10T07:59:59.330Z,74.38
2022-10-10T08:01:06.299Z,74.45
2022-10-10T08:02:09.468Z,74.58
2022-10-10T08:03:12.980Z,74.47
2022-10-10T08:04:14.719Z,74.59
2022-10-10T08:05:17.578Z,74.61
2022-10-10T08:06:19.145Z,74.36
2022-10-10T08:07:21.743Z,74.54
2022-10-10T08:08:23.351Z,74.66
2022-10-10T08:09:25.889Z,74.50
2022-10-10T08:10:29.620Z,74.54
2022-10-10T08:11:33.411Z,74.65
2022-10-10T08:12:38.267Z,74.70
2022-10-10T08:13:44.605Z,74.66
2022-10-10T08:14:47.764Z,74.54
2022-10-10T08:15:51.545Z,74.89
2022-10-10T08:16:53.108Z,74.63
2022-10-10T08:17:55.801Z,74.47
2022-10-10T08:18:57.501Z,74.74
2022-10-10T08:20:00.220Z,74.94
2022-10-10T08:21:04.874Z,74.59
2022-10-10T08:22:06.623Z,74.91
2022-10-10T08:23:09.325Z,74.61
2022-10-10T08:24:11.805Z,74.77
2022-10-10T08:25:13.480Z,74.56
2022-10-10T08:26:17.703Z,74.70
2022-10-10T08:27:20.784Z,74.56
2022-10-10T08:28:23.876Z,74.37
2022-10-10T08:29:26.461Z,74.54
2022-10-10T08:30:29.537Z,74.43
2022-10-10T08:31:32.088Z,74.61
2022-10-10T08:32:34.635Z,74.46
2022-10-10T08:33:36.344Z,74.30
2022-10-10T08:34:38.935Z,74.66
2022-10-10T08:35:41.040Z,74.44
2022-10-10T08:36:44.290Z,74.36
2022-10-10T08:37:45.877Z,74.58
2022-10-10T08:38:48.587Z,74.23
2022-10-10T08:39:50.214Z,74.46
2022-10-10T08:40:57.763Z,74.40
2022-10-10T08:42:01.225Z,74.46
2022-10-10T08:43:07.661Z,74.48
2022-10-10T08:44:16.815Z,74.48
2022-10-10T08:45:23.317Z,74.41
2022-10-10T08:46:35.156Z,74.36
2022-10-10T08:47:42.786Z,74.34
2022-10-10T08:48:46.663Z,74.50
2022-10-10T08:49:53.095Z,74.37
2022-10-10T08:50:59.402Z,74.70
2022-10-10T08:52:06.898Z,74.14
2022-10-10T08:53:13.497Z,74.30
2022-10-10T08:54:18.778Z,74.62
2022-10-10T08:55:30.865Z,74.27
2022-10-10T08:56:34.882Z,74.23
2022-10-10T08:57:47.640Z,74.58
2022-10-10T08:58:55.401Z,74.19
2022-10-10T09:00:03.415Z,74.10
2022-10-10T09:02:17.667Z,74.17
2022-10-10T09:03:31.772Z,73.92
2022-10-10T09:04:34.513Z,74.13
2022-10-10T09:05:52.514Z,74.07
2022-10-10T09:07:10.789Z,74.09
2022-10-10T09:08:27.073Z,73.83
2022-10-10T09:09:36.252Z,73.89
2022-10-10T09:10:47.700Z,73.82
2022-10-10T09:11:59.926Z,73.96
2022-10-10T09:13:10.754Z,73.51
2022-10-10T09:14:24.696Z,73.86
2022-10-10T09:15:32.370Z,73.69
2022-10-10T09:16:40.175Z,73.64
2022-10-10T09:17:47.853Z,73.81
2022-10-10T09:19:03.248Z,73.62
2022-10-10T09:20:19.226Z,73.64
2022-10-10T09:21:24.266Z,73.50
2022-10-10T09:22:31.729Z,73.39
2022-10-10T09:23:38.744Z,73.39
2022-10-10T09:24:46.354Z,73.35
2022-10-10T09:25:54.146Z,73.51
2022-10-10T09:27:00.194Z,73.43
2022-10-10T09:28:08.869Z,73.11
2022-10-10T09:29:26.378Z,73.34
2022-10-10T09:30:32.319Z,73.53
2022-10-10T09:31:38.719Z,73.41
2022-10-10T09:32:45.952Z,73.31
2022-10-10T09:33:56.461Z,73.10
2022-10-10T09:35:02.007Z,73.34
2022-10-10T09:36:10.033Z,73.19
2022-10-10T09:37:35.335Z,72.97
2022-10-10T09:38:44.235Z,72.91
2022-10-10T09:39:50.268Z,73.14
2022-10-10T09:42:01.462Z,73.17
2022-10-10T09:43:12.706Z,73.15
2022-10-10T09:44:17.242Z,73.11
2022-10-10T09:45:24.452Z,72.86
2022-10-10T09:46:27.490Z,72.65
2022-10-10T09:47:29.356Z,72.80
2022-10-10T09:48:33.912Z,72.71
2022-10-10T09:49:37.727Z,72.59
2022-10-10T09:50:43.069Z,72.63
2022-10-10T09:51:48.104Z,72.64
2022-10-10T09:52:51.597Z,72.41
2022-10-10T09:53:54.144Z,72.59
2022-10-10T09:55:00.685Z,72.55
2022-10-10T09:56:06.434Z,72.48
2022-10-10T09:57:14.986Z,72.62
2022-10-10T09:58:26.387Z,72.38
2022-10-10T09:59:36.488Z,72.49
2022-10-10T10:00:39.021Z,72.62
2022-10-10T10:01:40.739Z,72.56
2022-10-10T10:02:43.428Z,72.38
2022-10-10T10:04:23.311Z,72.60
2022-10-10T10:05:30.915Z,72.53
2022-10-10T10:06:33.929Z,72.37
2022-10-10T10:07:37.125Z,72.22
2022-10-10T10:08:38.901Z,72.28
2022-10-10T10:09:41.437Z,72.13
2022-10-10T10:10:43.015Z,71.97
2022-10-10T10:11:47.240Z,71.76
2022-10-10T10:12:50.042Z,71.95
2022-10-10T10:13:56.312Z,71.64
2022-10-10T10:15:01.900Z,71.68
2022-10-10T10:16:08.160Z,71.41
2022-10-10T10:17:13.811Z,71.35
2022-10-10T10:18:24.966Z,71.14
2022-10-10T10:19:32.904Z,71.12
2022-10-10T10:20:40.507Z,71.07
2022-10-10T10:21:50.211Z,71.07
2022-10-10T10:23:58.326Z,70.96
2022-10-10T10:25:21.420Z,71.10
2022-10-10T10:26:25.188Z,71.05
2022-10-10T10:27:29.763Z,70.44
2022-10-10T10:28:32.324Z,70.68
2022-10-10T10:29:34.451Z,70.53
2022-10-10T10:30:37.099Z,70.49
2022-10-10T10:31:54.644Z,70.42
2022-10-10T10:33:06.138Z,70.35
2022-10-10T10:34:19.236Z,70.23
2022-10-10T10:35:28.588Z,70.22
2022-10-10T10:36:46.061Z,70.35
2022-10-10T10:38:02.778Z,70.20
2022-10-10T10:39:24.486Z,70.00
2022-10-10T10:40:35.122Z,69.89
2022-10-10T10:41:44.300Z,69.81
2022-10-10T10:43:17.477Z,69.84
2022-10-10T10:44:30.810Z,69.86
2022-10-10T10:45:44.639Z,69.84
2022-10-10T10:47:00.933Z,69.71
2022-10-10T10:48:16.554Z,69.79
2022-10-10T10:49:25.572Z,69.82
2022-10-10T10:50:40.835Z,69.49
2022-10-10T10:52:08.336Z,69.53
2022-10-10T10:53:23.076Z,69.53
2022-10-10T10:54:40.337Z,69.52
2022-10-10T10:55:47.812Z,69.26
2022-10-10T10:56:56.403Z,69.21
2022-10-10T11:00:25.585Z,69.14
2022-10-10T11:01:51.867Z,68.97
2022-10-10T11:03:35.078Z,68.94
2022-10-10T11:05:25.052Z,69.03
2022-10-10T11:07:13.747Z,68.98
2022-10-10T11:08:29.019Z,69.00
2022-10-10T11:09:51.812Z,68.72
2022-10-10T11:11:07.610Z,68.40
2022-10-10T11:12:19.028Z,68.61
2022-10-10T11:13:37.739Z,68.30
2022-10-10T11:14:57.983Z,68.12
2022-10-10T11:16:13.400Z,68.09
2022-10-10T11:17:27.424Z,67.86
2022-10-10T11:18:34.232Z,67.77
2022-10-10T11:19:43.366Z,67.72
2022-10-10T11:20:51.229Z,67.41
2022-10-10T11:21:57.843Z,67.41
2022-10-10T11:25:30.479Z,67.40
2022-10-10T11:26:35.369Z,67.39
2022-10-10T11:27:44.055Z,67.08
2022-10-10T11:28:51.076Z,66.92
2022-10-10T11:30:14.865Z,66.70
2022-10-10T11:31:28.483Z,66.86
2022-10-10T11:32:37.740Z,66.75
2022-10-10T11:33:44.415Z,66.64
2022-10-10T11:35:02.325Z,66.48
2022-10-10T11:36:10.422Z,66.35
2022-10-10T11:37:16.603Z,65.94
2022-10-10T11:38:26.220Z,65.91
2022-10-10T11:39:34.148Z,65.71
2022-10-10T11:40:53.705Z,65.65
2022-10-10T11:42:03.794Z,65.48
2022-10-10T11:43:13.024Z,65.50
2022-10-10T11:44:21.561Z,65.23
2022-10-10T11:45:28.204Z,65.21
2022-10-10T11:46:41.325Z,64.97
2022-10-10T11:47:47.253Z,64.94
2022-10-10T11:48:58.974Z,64.85
2022-10-10T11:50:05.815Z,64.79
2022-10-10T11:51:19.899Z,65.02
2022-10-10T11:52:33.943Z,64.94
2022-10-10T11:53:43.233Z,64.89
2022-10-10T11:54:55.900Z,64.53
2022-10-10T11:56:07.957Z,64.57
2022-10-10T11:57:17.755Z,64.63
2022-10-10T11:58:28.256Z,64.53
2022-10-10T11:59:37.547Z,64.51
2022-10-10T12:00:44.128Z,64.61
2022-10-10T12:01:52.323Z,64.27
2022-10-10T12:02:57.945Z,64.25
2022-10-10T12:04:01.787Z,64.25
2022-10-10T12:05:06.017Z,63.99
2022-10-10T12:06:19.043Z,63.86
2022-10-10T12:07:28.253Z,64.05
2022-10-10T12:08:37.764Z,64.09
2022-10-10T12:09:44.549Z,64.04
2022-10-10T12:10:51.125Z,63.85
2022-10-10T12:12:00.712Z,63.47
2022-10-10T12:13:22.501Z,63.23
2022-10-10T12:14:27.652Z,63.25
2022-10-10T12:15:37.247Z,63.43
2022-10-10T12:16:43.087Z,63.01
2022-10-10T12:17:46.358Z,62.89
2022-10-10T12:18:55.439Z,62.60
2022-10-10T12:20:10.201Z,62.54
2022-10-10T12:21:14.837Z,62.39
2022-10-10T12:22:25.145Z,62.34
2022-10-10T12:23:29.947Z,62.10
2022-10-10T12:24:37.705Z,62.28
2022-10-10T12:25:45.078Z,61.86
2022-10-10T12:27:30.836Z,61.99
2022-10-10T12:29:02.578Z,62.29
2022-10-10T12:30:20.365Z,62.39
2022-10-10T12:31:37.514Z,62.10
2022-10-10T12:32:43.298Z,61.99
2022-10-10T12:34:10.050Z,61.81
2022-10-10T12:35:38.436Z,61.78
2022-10-10T12:36:56.073Z,62.12
2022-10-10T12:38:11.888Z,61.62
2022-10-10T12:39:38.021Z,61.95
2022-10-10T12:41:10.409Z,61.84
2022-10-10T12:42:33.658Z,61.45
2022-10-10T12:43:46.879Z,61.45
2022-10-10T12:44:48.494Z,61.55
2022-10-10T12:46:18.590Z,61.52
2022-10-10T12:47:52.629Z,61.76
2022-10-10T12:49:06.733Z,61.66
2022-10-10T12:50:22.488Z,61.87
2022-10-10T12:51:24.985Z,62.07
2022-10-10T12:52:32.517Z,61.81
2022-10-10T12:53:34.601Z,61.74
2022-10-10T12:54:41.258Z,62.02
2022-10-10T12:55:45.633Z,61.55
2022-10-10T12:56:49.148Z,61.85
2022-10-10T12:57:53.711Z,61.60
2022-10-10T12:58:57.105Z,61.69
2022-10-10T13:00:06.304Z,61.48
2022-10-10T13:01:25.088Z,61.43
2022-10-10T13:02:29.589Z,61.43
2022-10-10T13:03:34.667Z,61.60
2022-10-10T13:04:37.813Z,61.47
2022-10-10T13:05:40.753Z,61.91
2022-10-10T13:06:46.391Z,61.60
2022-10-10T13:07:51.051Z,61.73
2022-10-10T13:08:55.168Z,61.78
2022-10-10T13:10:06.590Z,61.68
2022-10-10T13:11:11.855Z,61.92
2022-10-10T13:12:23.806Z,61.56
2022-10-10T13:13:25.326Z,61.82
2022-10-10T13:14:39.365Z,61.85
2022-10-10T13:15:52.403Z,61.82
2022-10-10T13:16:54.532Z,61.86
2022-10-10T13:17:57.153Z,61.94
2022-10-10T13:18:59.852Z,61.96
2022-10-10T13:20:08.963Z,62.11
2022-10-10T13:21:13.685Z,62.20
2022-10-10T13:22:17.370Z,62.14
2022-10-10T13:23:20.023Z,62.07
2022-10-10T13:24:28.969Z,62.18
2022-10-10T13:25:35.455Z,62.40
2022-10-10T13:26:39.948Z,62.39
2022-10-10T13:27:43.804Z,62.08
2022-10-10T13:28:45.425Z,62.13
2022-10-10T13:29:49.688Z,61.79
2022-10-10T13:30:51.811Z,61.78
2022-10-10T13:31:56.192Z,61.92
2022-10-10T13:32:58.725Z,61.94
2022-10-10T13:34:05.018Z,61.95
2022-10-10T13:35:15.927Z,61.94
2022-10-10T13:36:21.467Z,61.69
2022-10-10T13:37:24.981Z,61.71
2022-10-10T13:38:26.831Z,61.93
2022-10-10T13:39:31.470Z,61.88
2022-10-10T13:40:34.095Z,61.51
2022-10-10T13:41:35.759Z,61.53
2022-10-10T13:42:40.171Z,61.38
2022-10-10T13:43:42.029Z,61.34
2022-10-10T13:44:51.120Z,61.24
2022-10-10T13:45:57.388Z,61.35
2022-10-10T13:47:00.651Z,61.36
2022-10-10T13:48:21.676Z,61.42
2022-10-10T13:49:26.998Z,61.24
2022-10-10T13:50:31.151Z,60.85
2022-10-10T13:52:01.003Z,61.07
2022-10-10T13:53:32.169Z,60.71
2022-10-10T13:54:40.781Z,60.89
2022-10-10T13:55:43.527Z,60.77
2022-10-10T13:56:46.135Z,60.53
2022-10-10T13:57:47.931Z,60.90
2022-10-10T13:58:52.708Z,60.91
2022-10-10T14:00:03.678Z,60.59
2022-10-10T14:01:25.703Z,60.89
2022-10-10T14:02:32.556Z,60.73
2022-10-10T14:03:34.569Z,60.33
2022-10-10T14:04:44.961Z,60.41
2022-10-10T14:05:46.929Z,60.34
2022-10-10T14:06:55.670Z,60.04
2022-10-10T14:07:59.693Z,60.02
2022-10-10T14:09:09.717Z,60.40
2022-10-10T14:10:17.831Z,60.18
2022-10-10T14:11:23.189Z,60.41
2022-10-10T14:12:31.156Z,60.13
2022-10-10T14:13:34.428Z,60.16
2022-10-10T14:14:44.123Z,60.53
2022-10-10T14:15:47.532Z,60.74
2022-10-10T14:16:58.772Z,60.51
2022-10-10T14:18:01.316Z,60.45
2022-10-10T14:19:03.864Z,60.60
2022-10-10T14:20:13.307Z,60.46
2022-10-10T14:21:15.128Z,60.35
2022-10-10T14:22:17.731Z,60.59
2022-10-10T14:23:19.916Z,60.62
2022-10-10T14:24:22.421Z,60.70
2022-10-10T14:25:23.974Z,60.44
2022-10-10T14:26:26.665Z,60.57
2022-10-10T14:27:30.705Z,60.47
2022-10-10T14:28:37.043Z,60.79
2022-10-10T14:29:39.775Z,60.63
2022-10-10T14:30:41.351Z,60.48
2022-10-10T14:31:46.321Z,60.39
2022-10-10T14:32:47.901Z,60.41
2022-10-10T14:33:50.413Z,60.52
2022-10-10T14:34:52.023Z,60.47
2022-10-10T14:35:57.191Z,60.35
2022-10-10T14:36:59.687Z,60.43
2022-10-10T14:38:01.209Z,60.06
2022-10-10T14:39:03.784Z,60.08
2022-10-10T14:40:19.215Z,60.25
2022-10-10T14:41:21.692Z,60.32
2022-10-10T14:42:25.856Z,59.96
2022-10-10T14:43:28.654Z,59.93
2022-10-10T14:44:30.441Z,60.38
2022-10-10T14:45:33.081Z,60.22
2022-10-10T14:46:35.879Z,60.46
2022-10-10T14:47:38.827Z,60.39
2022-10-10T14:48:41.392Z,60.36
2022-10-10T14:49:43.489Z,60.76
2022-10-10T14:50:47.966Z,60.56
2022-10-10T14:51:49.509Z,60.88
2022-10-10T14:52:51.978Z,60.92
2022-10-10T14:54:11.880Z,60.91
2022-10-10T14:55:16.631Z,61.28
2022-10-10T14:56:18.341Z,61.20
2022-10-10T14:57:22.231Z,60.97
2022-10-10T14:58:23.922Z,61.38
2022-10-10T14:59:47.365Z,61.28
2022-10-10T15:00:49.708Z,61.54
2022-10-10T15:01:51.247Z,61.61
2022-10-10T15:02:55.776Z,61.38
2022-10-10T15:03:57.337Z,61.75
2022-10-10T15:05:00.084Z,61.62
2022-10-10T15:06:01.945Z,62.04
2022-10-10T15:07:19.187Z,62.20
2022-10-10T15:08:21.696Z,61.97
2022-10-10T15:09:40.552Z,62.07
2022-10-10T15:10:46.404Z,62.24
2022-10-10T15:11:47.999Z,62.36
2022-10-10T15:12:50.611Z,62.14
2022-10-10T15:13:52.230Z,62.33
2022-10-10T15:14:54.772Z,62.51
2022-10-10T15:15:57.359Z,62.50
2022-10-10T15:16:58.952Z,62.43
2022-10-10T15:18:03.125Z,62.56
2022-10-10T15:19:04.695Z,62.67
2022-10-10T15:20:09.304Z,62.64
2022-10-10T15:21:12.465Z,62.56
2022-10-10T15:22:13.976Z,62.86
2022-10-10T15:23:16.667Z,63.09
2022-10-10T15:24:18.457Z,62.95
2022-10-10T15:25:21.193Z,62.96
2022-10-10T15:26:23.463Z,63.17
2022-10-10T15:27:27.899Z,63.09
2022-10-10T15:28:29.457Z,63.36
2022-10-10T15:29:32.446Z,63.42
2022-10-10T15:30:34.158Z,63.38
2022-10-10T15:31:36.743Z,63.39
2022-10-10T15:32:39.734Z,63.57
2022-10-10T15:33:43.583Z,63.78
2022-10-10T15:34:47.909Z,63.45
2022-10-10T15:36:09.042Z,63.63
2022-10-10T15:37:12.766Z,63.42
2022-10-10T15:38:15.301Z,63.60
2022-10-10T15:39:16.943Z,63.45
2022-10-10T15:40:22.170Z,63.73
2022-10-10T15:41:24.168Z,63.72
2022-10-10T15:42:26.656Z,63.87
2022-10-10T15:43:29.158Z,63.89
2022-10-10T15:44:32.367Z,63.44
2022-10-10T15:45:55.066Z,63.46
2022-10-10T15:46:57.978Z,63.65
2022-10-10T15:48:06.480Z,63.58
2022-10-10T15:49:09.805Z,63.38
2022-10-10T15:50:12.613Z,63.33
2022-10-10T15:51:15.226Z,63.37
2022-10-10T15:52:18.092Z,63.62